sensor_id;sensor_type;location;lat;lon;timestamp;temperature;humidity
27368;DHT22;14839;48.106;11.618;2024-03-08T05:02:38;0.00;94.60
27368;DHT22;14839;48.106;11.618;2024-03-08T05:05:05;-0.10;94.60
27368;DHT22;14839;48.106;11.618;2024-03-08T05:07:31;-0.10;94.60
27368;DHT22;14839;48.106;11.618;2024-03-08T05:09:58;-0.10;94.60
27368;DHT22;14839;48.106;11.618;2024-03-08T05:12:24;-0.10;94.60
27368;DHT22;14839;48.106;11.618;2024-03-08T05:14:49;-0.10;94.60
27368;DHT22;14839;48.106;11.618;2024-03-08T05:17:15;0.00;94.60
27368;DHT22;14839;48.106;11.618;2024-03-08T05:19:42;-0.10;94.60
27368;DHT22;14839;48.106;11.618;2024-03-08T05:22:07;0.00;94.60
27368;DHT22;14839;48.106;11.618;2024-03-08T05:24:33;-0.10;94.60
27368;DHT22;14839;48.106;11.618;2024-03-08T05:26:59;0.00;94.60
27368;DHT22;14839;48.106;11.618;2024-03-08T05:29:25;0.00;94.60
27368;DHT22;14839;48.106;11.618;2024-03-08T05:31:52;0.00;94.60
27368;DHT22;14839;48.106;11.618;2024-03-08T05:34:18;0.00;94.60
27368;DHT22;14839;48.106;11.618;2024-03-08T05:36:45;0.10;94.60
27368;DHT22;14839;48.106;11.618;2024-03-08T05:39:18;0.10;94.60
27368;DHT22;14839;48.106;11.618;2024-03-08T05:41:45;0.20;94.60
27368;DHT22;14839;48.106;11.618;2024-03-08T05:44:11;0.20;94.60
27368;DHT22;14839;48.106;11.618;2024-03-08T05:46:37;0.20;94.60
27368;DHT22;14839;48.106;11.618;2024-03-08T05:49:03;0.30;94.60
27368;DHT22;14839;48.106;11.618;2024-03-08T05:51:32;0.30;94.60
27368;DHT22;14839;48.106;11.618;2024-03-08T05:54:09;0.40;94.60
27368;DHT22;14839;48.106;11.618;2024-03-08T05:56:36;0.40;94.60
27368;DHT22;14839;48.106;11.618;2024-03-08T05:59:02;0.40;94.60
27368;DHT22;14839;48.106;11.618;2024-03-08T06:01:28;0.40;94.60
27368;DHT22;14839;48.106;11.618;2024-03-08T06:03:55;0.40;94.60
27368;DHT22;14839;48.106;11.618;2024-03-08T06:06:23;0.50;94.60
27368;DHT22;14839;48.106;11.618;2024-03-08T06:08:49;0.60;94.60
27368;DHT22;14839;48.106;11.618;2024-03-08T06:11:16;0.70;94.60
27368;DHT22;14839;48.106;11.618;2024-03-08T06:13:46;0.60;94.60
27368;DHT22;14839;48.106;11.618;2024-03-08T06:16:12;0.60;94.60
27368;DHT22;14839;48.106;11.618;2024-03-08T06:18:38;0.50;94.60
27368;DHT22;14839;48.106;11.618;2024-03-08T06:21:05;0.60;94.60
27368;DHT22;14839;48.106;11.618;2024-03-08T06:23:37;0.70;94.60
27368;DHT22;14839;48.106;11.618;2024-03-08T06:26:04;0.80;94.60
27368;DHT22;14839;48.106;11.618;2024-03-08T06:28:29;1.00;94.60
27368;DHT22;14839;48.106;11.618;2024-03-08T06:30:55;0.90;94.60
27368;DHT22;14839;48.106;11.618;2024-03-08T06:33:21;0.80;94.60
27368;DHT22;14839;48.106;11.618;2024-03-08T06:35:46;0.80;94.60
27368;DHT22;14839;48.106;11.618;2024-03-08T06:38:12;0.70;94.60
27368;DHT22;14839;48.106;11.618;2024-03-08T06:40:38;0.70;94.60
27368;DHT22;14839;48.106;11.618;2024-03-08T06:43:03;0.80;94.60
27368;DHT22;14839;48.106;11.618;2024-03-08T06:45:32;0.90;94.60
27368;DHT22;14839;48.106;11.618;2024-03-08T06:47:57;0.80;94.60
27368;DHT22;14839;48.106;11.618;2024-03-08T06:50:23;0.90;94.60
27368;DHT22;14839;48.106;11.618;2024-03-08T06:52:49;0.90;94.60
27368;DHT22;14839;48.106;11.618;2024-03-08T06:55:19;0.90;94.60
27368;DHT22;14839;48.106;11.618;2024-03-08T06:57:45;1.10;94.60
27368;DHT22;14839;48.106;11.618;2024-03-08T07:00:11;1.40;94.60
27368;DHT22;14839;48.106;11.618;2024-03-08T07:02:46;1.30;94.60
27368;DHT22;14839;48.106;11.618;2024-03-08T07:05:16;1.30;94.60
27368;DHT22;14839;48.106;11.618;2024-03-08T07:07:42;1.40;94.60
27368;DHT22;14839;48.106;11.618;2024-03-08T07:10:08;1.30;94.60
27368;DHT22;14839;48.106;11.618;2024-03-08T07:12:39;1.30;94.60
27368;DHT22;14839;48.106;11.618;2024-03-08T07:15:05;1.50;94.60
27368;DHT22;14839;48.106;11.618;2024-03-08T07:17:31;1.70;94.60
27368;DHT22;14839;48.106;11.618;2024-03-08T07:19:59;1.60;94.60
27368;DHT22;14839;48.106;11.618;2024-03-08T07:22:32;1.50;94.60
27368;DHT22;14839;48.106;11.618;2024-03-08T07:24:58;1.40;94.60
27368;DHT22;14839;48.106;11.618;2024-03-08T07:27:43;1.70;94.60
27368;DHT22;14839;48.106;11.618;2024-03-08T07:30:09;1.80;94.60
27368;DHT22;14839;48.106;11.618;2024-03-08T07:32:35;1.80;94.60
27368;DHT22;14839;48.106;11.618;2024-03-08T07:35:01;1.70;94.60
27368;DHT22;14839;48.106;11.618;2024-03-08T07:37:27;1.90;94.60
27368;DHT22;14839;48.106;11.618;2024-03-08T07:39:53;2.20;94.60
27368;DHT22;14839;48.106;11.618;2024-03-08T07:42:18;2.40;94.60
27368;DHT22;14839;48.106;11.618;2024-03-08T07:44:44;2.60;94.60
27368;DHT22;14839;48.106;11.618;2024-03-08T07:47:11;2.60;94.60
27368;DHT22;14839;48.106;11.618;2024-03-08T07:49:37;2.50;94.60
27368;DHT22;14839;48.106;11.618;2024-03-08T07:52:04;2.40;94.60
27368;DHT22;14839;48.106;11.618;2024-03-08T07:54:30;2.60;94.60
27368;DHT22;14839;48.106;11.618;2024-03-08T07:56:56;2.80;94.60
27368;DHT22;14839;48.106;11.618;2024-03-08T07:59:21;3.40;94.60
27368;DHT22;14839;48.106;11.618;2024-03-08T08:01:47;3.60;94.60
27368;DHT22;14839;48.106;11.618;2024-03-08T08:04:13;4.00;94.60
27368;DHT22;14839;48.106;11.618;2024-03-08T08:06:41;3.80;94.60
27368;DHT22;14839;48.106;11.618;2024-03-08T08:09:10;4.00;94.60
27368;DHT22;14839;48.106;11.618;2024-03-08T08:11:42;4.20;94.30
27368;DHT22;14839;48.106;11.618;2024-03-08T08:14:09;3.90;94.60
27368;DHT22;14839;48.106;11.618;2024-03-08T08:16:36;3.80;94.60
27368;DHT22;14839;48.106;11.618;2024-03-08T08:19:07;3.50;94.60
27368;DHT22;14839;48.106;11.618;2024-03-08T08:21:36;3.30;94.60
27368;DHT22;14839;48.106;11.618;2024-03-08T08:24:03;3.30;94.60
27368;DHT22;14839;48.106;11.618;2024-03-08T08:26:29;3.30;94.60
27368;DHT22;14839;48.106;11.618;2024-03-08T08:28:56;3.50;94.60
27368;DHT22;14839;48.106;11.618;2024-03-08T08:31:22;3.80;94.60
27368;DHT22;14839;48.106;11.618;2024-03-08T08:33:48;3.70;94.60
27368;DHT22;14839;48.106;11.618;2024-03-08T08:36:14;3.90;94.60
27368;DHT22;14839;48.106;11.618;2024-03-08T08:38:40;4.20;94.60
27368;DHT22;14839;48.106;11.618;2024-03-08T08:41:09;4.10;94.40
27368;DHT22;14839;48.106;11.618;2024-03-08T08:43:35;4.10;94.50
27368;DHT22;14839;48.106;11.618;2024-03-08T08:46:00;4.30;94.50
27368;DHT22;14839;48.106;11.618;2024-03-08T08:48:26;4.40;93.90
27368;DHT22;14839;48.106;11.618;2024-03-08T08:50:53;4.70;93.30
27368;DHT22;14839;48.106;11.618;2024-03-08T08:53:19;5.30;91.90
27368;DHT22;14839;48.106;11.618;2024-03-08T08:55:44;5.70;90.70
27368;DHT22;14839;48.106;11.618;2024-03-08T08:58:11;6.10;89.50
27368;DHT22;14839;48.106;11.618;2024-03-08T09:00:36;6.60;88.60
27368;DHT22;14839;48.106;11.618;2024-03-08T09:03:02;6.80;86.00
27368;DHT22;14839;48.106;11.618;2024-03-08T09:05:28;6.90;85.60
27368;DHT22;14839;48.106;11.618;2024-03-08T09:07:54;7.70;84.10
27368;DHT22;14839;48.106;11.618;2024-03-08T09:10:20;8.00;82.00
27368;DHT22;14839;48.106;11.618;2024-03-08T09:12:46;8.30;79.40
27368;DHT22;14839;48.106;11.618;2024-03-08T09:15:12;7.80;79.60
27368;DHT22;14839;48.106;11.618;2024-03-08T09:17:38;7.50;82.00
27368;DHT22;14839;48.106;11.618;2024-03-08T09:20:09;7.50;81.40
27368;DHT22;14839;48.106;11.618;2024-03-08T09:22:35;7.80;82.70
27368;DHT22;14839;48.106;11.618;2024-03-08T09:25:01;8.10;79.40
27368;DHT22;14839;48.106;11.618;2024-03-08T09:27:27;8.10;80.00
27368;DHT22;14839;48.106;11.618;2024-03-08T09:29:54;8.80;78.70
27368;DHT22;14839;48.106;11.618;2024-03-08T09:32:20;9.50;75.70
27368;DHT22;14839;48.106;11.618;2024-03-08T09:34:45;9.20;74.20
27368;DHT22;14839;48.106;11.618;2024-03-08T09:37:11;8.70;76.60
27368;DHT22;14839;48.106;11.618;2024-03-08T09:39:37;8.50;76.60
27368;DHT22;14839;48.106;11.618;2024-03-08T09:42:03;8.30;77.60
27368;DHT22;14839;48.106;11.618;2024-03-08T09:44:29;8.20;78.70
27368;DHT22;14839;48.106;11.618;2024-03-08T09:46:55;8.20;78.40
27368;DHT22;14839;48.106;11.618;2024-03-08T09:49:21;8.70;78.50
27368;DHT22;14839;48.106;11.618;2024-03-08T09:51:46;8.80;76.70
27368;DHT22;14839;48.106;11.618;2024-03-08T09:54:13;8.70;77.90
27368;DHT22;14839;48.106;11.618;2024-03-08T09:56:43;9.00;76.00
27368;DHT22;14839;48.106;11.618;2024-03-08T09:59:10;9.40;75.10
27368;DHT22;14839;48.106;11.618;2024-03-08T10:01:41;9.20;74.90
27368;DHT22;14839;48.106;11.618;2024-03-08T10:04:07;8.60;78.20
27368;DHT22;14839;48.106;11.618;2024-03-08T10:06:32;8.60;78.50
27368;DHT22;14839;48.106;11.618;2024-03-08T10:08:58;9.30;77.30
27368;DHT22;14839;48.106;11.618;2024-03-08T10:11:27;9.50;74.00
27368;DHT22;14839;48.106;11.618;2024-03-08T10:13:53;8.90;75.50
27368;DHT22;14839;48.106;11.618;2024-03-08T10:16:18;8.70;76.10
27368;DHT22;14839;48.106;11.618;2024-03-08T10:18:45;8.90;77.20
27368;DHT22;14839;48.106;11.618;2024-03-08T10:21:11;9.20;75.10
27368;DHT22;14839;48.106;11.618;2024-03-08T10:23:37;8.80;76.10
27368;DHT22;14839;48.106;11.618;2024-03-08T10:26:15;9.40;76.60
27368;DHT22;14839;48.106;11.618;2024-03-08T10:28:51;9.80;73.00
27368;DHT22;14839;48.106;11.618;2024-03-08T10:31:18;9.70;73.30
27368;DHT22;14839;48.106;11.618;2024-03-08T10:33:45;9.50;73.90
27368;DHT22;14839;48.106;11.618;2024-03-08T10:36:11;9.30;74.80
27368;DHT22;14839;48.106;11.618;2024-03-08T10:38:39;8.80;76.60
27368;DHT22;14839;48.106;11.618;2024-03-08T10:41:06;9.20;76.40
27368;DHT22;14839;48.106;11.618;2024-03-08T10:46:35;10.00;74.20
27368;DHT22;14839;48.106;11.618;2024-03-08T10:49:04;10.40;72.40
27368;DHT22;14839;48.106;11.618;2024-03-08T10:51:32;10.20;71.30
27368;DHT22;14839;48.106;11.618;2024-03-08T10:53:59;10.00;71.80
27368;DHT22;14839;48.106;11.618;2024-03-08T10:56:25;10.00;72.70
27368;DHT22;14839;48.106;11.618;2024-03-08T10:58:53;9.80;73.60
27368;DHT22;14839;48.106;11.618;2024-03-08T11:01:19;10.10;72.50
27368;DHT22;14839;48.106;11.618;2024-03-08T11:03:46;10.40;71.90
27368;DHT22;14839;48.106;11.618;2024-03-08T11:06:17;9.70;72.70
27368;DHT22;14839;48.106;11.618;2024-03-08T11:08:45;9.90;74.30
27368;DHT22;14839;48.106;11.618;2024-03-08T11:11:28;9.80;72.40
27368;DHT22;14839;48.106;11.618;2024-03-08T11:13:58;10.10;72.50
27368;DHT22;14839;48.106;11.618;2024-03-08T11:19:00;10.10;72.40
27368;DHT22;14839;48.106;11.618;2024-03-08T11:21:30;9.80;72.10
27368;DHT22;14839;48.106;11.618;2024-03-08T11:24:06;9.30;73.60
27368;DHT22;14839;48.106;11.618;2024-03-08T11:26:33;9.40;75.10
27368;DHT22;14839;48.106;11.618;2024-03-08T11:32:19;9.40;77.50
27368;DHT22;14839;48.106;11.618;2024-03-08T11:34:48;9.60;74.00
27368;DHT22;14839;48.106;11.618;2024-03-08T11:37:18;9.70;73.00
27368;DHT22;14839;48.106;11.618;2024-03-08T11:39:50;9.70;73.00
27368;DHT22;14839;48.106;11.618;2024-03-08T11:42:17;9.60;72.70
27368;DHT22;14839;48.106;11.618;2024-03-08T11:44:46;9.70;72.70
27368;DHT22;14839;48.106;11.618;2024-03-08T11:47:13;9.80;73.60
27368;DHT22;14839;48.106;11.618;2024-03-08T11:49:39;10.10;72.80
27368;DHT22;14839;48.106;11.618;2024-03-08T11:52:11;9.80;72.50
27368;DHT22;14839;48.106;11.618;2024-03-08T11:54:38;9.70;72.80
27368;DHT22;14839;48.106;11.618;2024-03-08T11:57:04;9.50;73.70
27368;DHT22;14839;48.106;11.618;2024-03-08T11:59:30;9.50;74.30
27368;DHT22;14839;48.106;11.618;2024-03-08T12:02:06;9.80;74.30
27368;DHT22;14839;48.106;11.618;2024-03-08T12:04:32;9.70;73.40
27368;DHT22;14839;48.106;11.618;2024-03-08T12:07:01;9.90;73.60
27368;DHT22;14839;48.106;11.618;2024-03-08T12:09:28;9.90;73.60
27368;DHT22;14839;48.106;11.618;2024-03-08T12:11:54;9.70;73.90
27368;DHT22;14839;48.106;11.618;2024-03-08T12:14:20;9.60;74.60
27368;DHT22;14839;48.106;11.618;2024-03-08T12:16:46;9.60;73.70
27368;DHT22;14839;48.106;11.618;2024-03-08T12:19:13;9.40;74.00
27368;DHT22;14839;48.106;11.618;2024-03-08T12:21:39;9.40;75.10
27368;DHT22;14839;48.106;11.618;2024-03-08T12:24:15;9.60;74.80
27368;DHT22;14839;48.106;11.618;2024-03-08T12:26:45;9.80;75.10
27368;DHT22;14839;48.106;11.618;2024-03-08T12:29:15;10.00;74.60
27368;DHT22;14839;48.106;11.618;2024-03-08T12:31:45;9.80;73.60
27368;DHT22;14839;48.106;11.618;2024-03-08T12:34:12;9.90;73.70
27368;DHT22;14839;48.106;11.618;2024-03-08T12:36:50;10.10;75.10
27368;DHT22;14839;48.106;11.618;2024-03-08T12:39:19;10.40;74.50
27368;DHT22;14839;48.106;11.618;2024-03-08T12:41:49;10.50;72.40
27368;DHT22;14839;48.106;11.618;2024-03-08T12:44:18;10.60;71.80
27368;DHT22;14839;48.106;11.618;2024-03-08T12:46:48;10.30;73.10
27368;DHT22;14839;48.106;11.618;2024-03-08T12:49:14;10.20;72.50
27368;DHT22;14839;48.106;11.618;2024-03-08T12:51:46;10.10;72.50
27368;DHT22;14839;48.106;11.618;2024-03-08T12:54:11;10.10;72.40
27368;DHT22;14839;48.106;11.618;2024-03-08T12:56:37;10.10;72.70
27368;DHT22;14839;48.106;11.618;2024-03-08T12:59:04;10.10;71.00
27368;DHT22;14839;48.106;11.618;2024-03-08T13:01:31;10.20;71.60
27368;DHT22;14839;48.106;11.618;2024-03-08T13:04:02;10.20;70.60
27368;DHT22;14839;48.106;11.618;2024-03-08T13:06:29;10.00;71.00
27368;DHT22;14839;48.106;11.618;2024-03-08T13:08:56;10.20;71.50
27368;DHT22;14839;48.106;11.618;2024-03-08T13:11:22;10.00;72.10
27368;DHT22;14839;48.106;11.618;2024-03-08T13:13:51;10.00;71.80
27368;DHT22;14839;48.106;11.618;2024-03-08T13:16:18;10.00;70.70
27368;DHT22;14839;48.106;11.618;2024-03-08T13:18:45;10.10;71.00
27368;DHT22;14839;48.106;11.618;2024-03-08T13:21:11;10.10;71.60
27368;DHT22;14839;48.106;11.618;2024-03-08T13:23:40;10.00;71.60
27368;DHT22;14839;48.106;11.618;2024-03-08T13:26:10;10.10;71.90
27368;DHT22;14839;48.106;11.618;2024-03-08T13:28:46;9.80;70.90
27368;DHT22;14839;48.106;11.618;2024-03-08T13:31:12;10.00;71.80
27368;DHT22;14839;48.106;11.618;2024-03-08T13:33:40;9.80;71.00
27368;DHT22;14839;48.106;11.618;2024-03-08T13:36:10;9.90;71.20
27368;DHT22;14839;48.106;11.618;2024-03-08T13:38:43;9.80;71.30
27368;DHT22;14839;48.106;11.618;2024-03-08T13:41:12;9.90;71.50
27368;DHT22;14839;48.106;11.618;2024-03-08T13:43:41;10.00;71.20
27368;DHT22;14839;48.106;11.618;2024-03-08T13:46:06;10.10;71.50
27368;DHT22;14839;48.106;11.618;2024-03-08T13:48:35;10.10;70.90
27368;DHT22;14839;48.106;11.618;2024-03-08T13:51:03;10.00;71.60
27368;DHT22;14839;48.106;11.618;2024-03-08T13:53:30;10.00;71.80
27368;DHT22;14839;48.106;11.618;2024-03-08T13:55:55;10.10;72.50
27368;DHT22;14839;48.106;11.618;2024-03-08T13:58:22;10.10;72.20
27368;DHT22;14839;48.106;11.618;2024-03-08T14:00:47;10.20;72.20
27368;DHT22;14839;48.106;11.618;2024-03-08T14:03:13;10.40;72.40
27368;DHT22;14839;48.106;11.618;2024-03-08T14:05:39;10.20;71.50
27368;DHT22;14839;48.106;11.618;2024-03-08T14:08:08;10.20;71.50
27368;DHT22;14839;48.106;11.618;2024-03-08T14:10:34;10.20;71.50
27368;DHT22;14839;48.106;11.618;2024-03-08T14:13:03;10.20;72.10
27368;DHT22;14839;48.106;11.618;2024-03-08T14:15:30;10.10;72.40
27368;DHT22;14839;48.106;11.618;2024-03-08T14:17:56;10.10;71.30
27368;DHT22;14839;48.106;11.618;2024-03-08T14:20:23;10.10;71.90
27368;DHT22;14839;48.106;11.618;2024-03-08T14:22:54;10.00;71.80
27368;DHT22;14839;48.106;11.618;2024-03-08T14:25:23;10.00;73.00
27368;DHT22;14839;48.106;11.618;2024-03-08T14:27:50;9.90;71.60
27368;DHT22;14839;48.106;11.618;2024-03-08T14:30:20;10.00;71.60
27368;DHT22;14839;48.106;11.618;2024-03-08T14:33:01;10.20;72.70
27368;DHT22;14839;48.106;11.618;2024-03-08T14:35:27;10.30;72.10
27368;DHT22;14839;48.106;11.618;2024-03-08T14:37:55;10.30;71.60
27368;DHT22;14839;48.106;11.618;2024-03-08T14:40:22;10.30;71.80
27368;DHT22;14839;48.106;11.618;2024-03-08T14:42:49;10.30;71.90
27368;DHT22;14839;48.106;11.618;2024-03-08T14:45:16;10.10;72.50
27368;DHT22;14839;48.106;11.618;2024-03-08T14:47:42;10.10;72.70
27368;DHT22;14839;48.106;11.618;2024-03-08T14:50:08;10.00;73.40
27368;DHT22;14839;48.106;11.618;2024-03-08T14:52:35;10.00;73.30
27368;DHT22;14839;48.106;11.618;2024-03-08T14:55:01;10.00;73.10
27368;DHT22;14839;48.106;11.618;2024-03-08T14:57:29;9.90;72.20
27368;DHT22;14839;48.106;11.618;2024-03-08T14:59:58;9.90;71.80
27368;DHT22;14839;48.106;11.618;2024-03-08T15:02:28;9.90;71.60
27368;DHT22;14839;48.106;11.618;2024-03-08T15:04:53;9.80;72.80
27368;DHT22;14839;48.106;11.618;2024-03-08T15:07:23;9.90;73.00
27368;DHT22;14839;48.106;11.618;2024-03-08T15:09:49;10.00;71.90
27368;DHT22;14839;48.106;11.618;2024-03-08T15:12:14;10.10;71.90
27368;DHT22;14839;48.106;11.618;2024-03-08T15:14:43;10.10;72.10
27368;DHT22;14839;48.106;11.618;2024-03-08T15:17:12;10.00;72.10
27368;DHT22;14839;48.106;11.618;2024-03-08T15:19:49;9.90;72.10
27368;DHT22;14839;48.106;11.618;2024-03-08T15:22:14;9.80;71.60
27368;DHT22;14839;48.106;11.618;2024-03-08T15:24:43;9.70;73.00
27368;DHT22;14839;48.106;11.618;2024-03-08T15:27:09;9.70;73.30
27368;DHT22;14839;48.106;11.618;2024-03-08T15:29:34;9.70;73.10
27368;DHT22;14839;48.106;11.618;2024-03-08T15:32:01;9.70;73.40
27368;DHT22;14839;48.106;11.618;2024-03-08T15:34:28;9.80;73.40
27368;DHT22;14839;48.106;11.618;2024-03-08T15:36:54;9.70;73.30
27368;DHT22;14839;48.106;11.618;2024-03-08T15:39:19;9.50;73.00
27368;DHT22;14839;48.106;11.618;2024-03-08T15:41:49;9.50;73.30
27368;DHT22;14839;48.106;11.618;2024-03-08T15:44:15;9.50;72.50
27368;DHT22;14839;48.106;11.618;2024-03-08T15:46:41;9.50;73.70
27368;DHT22;14839;48.106;11.618;2024-03-08T15:49:07;9.50;73.40
27368;DHT22;14839;48.106;11.618;2024-03-08T15:51:32;9.60;73.10
27368;DHT22;14839;48.106;11.618;2024-03-08T15:53:58;9.40;73.30
27368;DHT22;14839;48.106;11.618;2024-03-08T15:56:24;9.50;73.70
27368;DHT22;14839;48.106;11.618;2024-03-08T15:58:51;9.50;73.70
27368;DHT22;14839;48.106;11.618;2024-03-08T16:01:17;9.50;73.30
27368;DHT22;14839;48.106;11.618;2024-03-08T16:03:44;9.40;73.90
27368;DHT22;14839;48.106;11.618;2024-03-08T16:06:19;9.50;73.60
27368;DHT22;14839;48.106;11.618;2024-03-08T16:08:51;9.50;73.40
27368;DHT22;14839;48.106;11.618;2024-03-08T16:11:17;9.50;73.40
27368;DHT22;14839;48.106;11.618;2024-03-08T16:13:44;9.40;73.30
27368;DHT22;14839;48.106;11.618;2024-03-08T16:16:09;9.30;74.30
27368;DHT22;14839;48.106;11.618;2024-03-08T16:18:35;9.10;74.90
27368;DHT22;14839;48.106;11.618;2024-03-08T16:21:03;9.10;75.40
27368;DHT22;14839;48.106;11.618;2024-03-08T16:23:29;9.00;75.80
27368;DHT22;14839;48.106;11.618;2024-03-08T16:25:56;8.90;75.70
27368;DHT22;14839;48.106;11.618;2024-03-08T16:28:22;9.00;76.10
27368;DHT22;14839;48.106;11.618;2024-03-08T16:30:51;8.90;76.40
27368;DHT22;14839;48.106;11.618;2024-03-08T16:33:21;8.70;76.70
27368;DHT22;14839;48.106;11.618;2024-03-08T16:35:48;8.70;77.50
27368;DHT22;14839;48.106;11.618;2024-03-08T16:38:15;8.60;77.90
27368;DHT22;14839;48.106;11.618;2024-03-08T16:40:42;8.60;77.90
27368;DHT22;14839;48.106;11.618;2024-03-08T16:43:08;8.60;77.90
27368;DHT22;14839;48.106;11.618;2024-03-08T16:45:40;8.50;78.40
27368;DHT22;14839;48.106;11.618;2024-03-08T16:48:07;8.60;78.70
27368;DHT22;14839;48.106;11.618;2024-03-08T16:50:33;8.50;79.10
27368;DHT22;14839;48.106;11.618;2024-03-08T16:52:59;8.50;79.60
27368;DHT22;14839;48.106;11.618;2024-03-08T16:55:25;8.40;79.70
27368;DHT22;14839;48.106;11.618;2024-03-08T16:57:51;8.40;80.00
27368;DHT22;14839;48.106;11.618;2024-03-08T17:00:20;8.30;80.20
27368;DHT22;14839;48.106;11.618;2024-03-08T17:02:53;8.30;80.50
27368;DHT22;14839;48.106;11.618;2024-03-08T17:05:19;8.20;81.40
27368;DHT22;14839;48.106;11.618;2024-03-08T17:07:48;8.20;81.50
27368;DHT22;14839;48.106;11.618;2024-03-08T17:10:24;8.10;82.00
27368;DHT22;14839;48.106;11.618;2024-03-08T17:12:53;8.00;82.60
27368;DHT22;14839;48.106;11.618;2024-03-08T17:15:20;7.90;83.50
27368;DHT22;14839;48.106;11.618;2024-03-08T17:17:48;7.80;83.80
27368;DHT22;14839;48.106;11.618;2024-03-08T17:20:14;7.80;84.40
27368;DHT22;14839;48.106;11.618;2024-03-08T17:22:49;7.70;84.80
27368;DHT22;14839;48.106;11.618;2024-03-08T17:25:15;7.70;85.10
27368;DHT22;14839;48.106;11.618;2024-03-08T17:27:43;7.70;85.30
27368;DHT22;14839;48.106;11.618;2024-03-08T17:30:10;7.60;85.90
27368;DHT22;14839;48.106;11.618;2024-03-08T17:32:48;7.60;86.20
27368;DHT22;14839;48.106;11.618;2024-03-08T17:35:18;7.60;86.50
27368;DHT22;14839;48.106;11.618;2024-03-08T17:37:48;7.50;87.10
27368;DHT22;14839;48.106;11.618;2024-03-08T17:40:17;7.50;87.20
27368;DHT22;14839;48.106;11.618;2024-03-08T17:42:51;7.40;87.70
27368;DHT22;14839;48.106;11.618;2024-03-08T17:45:18;7.40;88.00
27368;DHT22;14839;48.106;11.618;2024-03-08T17:47:44;7.30;88.30
27368;DHT22;14839;48.106;11.618;2024-03-08T17:50:11;7.30;88.70
27368;DHT22;14839;48.106;11.618;2024-03-08T17:52:41;7.20;88.90
27368;DHT22;14839;48.106;11.618;2024-03-08T17:55:08;7.10;89.50
27368;DHT22;14839;48.106;11.618;2024-03-08T17:57:37;7.10;89.80
27368;DHT22;14839;48.106;11.618;2024-03-08T18:00:07;6.90;90.30
27368;DHT22;14839;48.106;11.618;2024-03-08T18:02:35;6.90;90.60
27368;DHT22;14839;48.106;11.618;2024-03-08T18:05:01;6.90;90.80
27368;DHT22;14839;48.106;11.618;2024-03-08T18:07:29;6.80;90.80
27368;DHT22;14839;48.106;11.618;2024-03-08T18:09:55;6.70;91.20
27368;DHT22;14839;48.106;11.618;2024-03-08T18:12:20;6.60;91.90
27368;DHT22;14839;48.106;11.618;2024-03-08T18:14:46;6.60;92.10
27368;DHT22;14839;48.106;11.618;2024-03-08T18:17:12;6.60;92.20
27368;DHT22;14839;48.106;11.618;2024-03-08T18:19:39;6.50;92.50
27368;DHT22;14839;48.106;11.618;2024-03-08T18:22:04;6.50;92.70
27368;DHT22;14839;48.106;11.618;2024-03-08T18:24:30;6.40;93.10
27368;DHT22;14839;48.106;11.618;2024-03-08T18:26:55;6.40;93.20
27368;DHT22;14839;48.106;11.618;2024-03-08T18:29:21;6.30;93.40
27368;DHT22;14839;48.106;11.618;2024-03-08T18:31:48;6.30;93.50
27368;DHT22;14839;48.106;11.618;2024-03-08T18:34:13;6.30;93.70
27368;DHT22;14839;48.106;11.618;2024-03-08T18:36:39;6.20;94.00
27368;DHT22;14839;48.106;11.618;2024-03-08T18:39:05;6.10;94.20
27368;DHT22;14839;48.106;11.618;2024-03-08T18:41:31;6.10;94.30
27368;DHT22;14839;48.106;11.618;2024-03-08T18:44:00;6.00;94.60
27368;DHT22;14839;48.106;11.618;2024-03-08T18:46:26;6.00;94.60
27368;DHT22;14839;48.106;11.618;2024-03-08T18:48:53;6.00;94.60
27368;DHT22;14839;48.106;11.618;2024-03-08T18:51:19;5.90;94.60
27368;DHT22;14839;48.106;11.618;2024-03-08T18:53:44;5.90;94.60
27368;DHT22;14839;48.106;11.618;2024-03-08T18:56:10;5.80;94.60
27368;DHT22;14839;48.106;11.618;2024-03-08T18:58:36;5.80;94.60
27368;DHT22;14839;48.106;11.618;2024-03-08T19:01:02;5.70;94.60
27368;DHT22;14839;48.106;11.618;2024-03-08T19:03:30;5.70;94.60
27368;DHT22;14839;48.106;11.618;2024-03-08T19:05:57;5.70;94.60
27368;DHT22;14839;48.106;11.618;2024-03-08T19:08:22;5.60;94.60
27368;DHT22;14839;48.106;11.618;2024-03-08T19:10:49;5.50;94.60
27368;DHT22;14839;48.106;11.618;2024-03-08T19:13:19;5.50;94.60
27368;DHT22;14839;48.106;11.618;2024-03-08T19:15:46;5.40;94.60
27368;DHT22;14839;48.106;11.618;2024-03-08T19:18:12;5.40;94.60
27368;DHT22;14839;48.106;11.618;2024-03-08T19:20:38;5.40;94.60
27368;DHT22;14839;48.106;11.618;2024-03-08T19:23:04;5.40;94.60
27368;DHT22;14839;48.106;11.618;2024-03-08T19:25:34;5.30;94.60
27368;DHT22;14839;48.106;11.618;2024-03-08T19:28:04;5.20;94.60
27368;DHT22;14839;48.106;11.618;2024-03-08T19:30:32;5.20;94.60
27368;DHT22;14839;48.106;11.618;2024-03-08T19:32:59;5.10;94.60
27368;DHT22;14839;48.106;11.618;2024-03-08T19:35:26;5.10;94.60
27368;DHT22;14839;48.106;11.618;2024-03-08T19:37:55;5.10;94.60
27368;DHT22;14839;48.106;11.618;2024-03-08T19:40:22;5.00;94.60
27368;DHT22;14839;48.106;11.618;2024-03-08T19:42:52;5.00;94.60
27368;DHT22;14839;48.106;11.618;2024-03-08T19:45:21;4.90;94.60
27368;DHT22;14839;48.106;11.618;2024-03-08T19:47:51;4.90;94.60
27368;DHT22;14839;48.106;11.618;2024-03-08T19:50:18;4.90;94.60
27368;DHT22;14839;48.106;11.618;2024-03-08T19:52:48;4.80;94.60
27368;DHT22;14839;48.106;11.618;2024-03-08T19:55:15;4.70;94.60
27368;DHT22;14839;48.106;11.618;2024-03-08T19:57:44;4.70;94.60
27368;DHT22;14839;48.106;11.618;2024-03-08T20:00:13;4.60;94.60
27368;DHT22;14839;48.106;11.618;2024-03-08T20:02:47;4.50;94.60
27368;DHT22;14839;48.106;11.618;2024-03-08T20:05:14;4.50;94.60
27368;DHT22;14839;48.106;11.618;2024-03-08T20:07:44;4.40;94.60
27368;DHT22;14839;48.106;11.618;2024-03-08T20:10:14;4.30;94.60
27368;DHT22;14839;48.106;11.618;2024-03-08T20:12:42;4.20;94.60
27368;DHT22;14839;48.106;11.618;2024-03-08T20:15:09;4.10;94.60
27368;DHT22;14839;48.106;11.618;2024-03-08T20:17:36;4.20;94.60
27368;DHT22;14839;48.106;11.618;2024-03-08T20:20:05;4.20;94.60
27368;DHT22;14839;48.106;11.618;2024-03-08T20:22:32;4.10;94.60
27368;DHT22;14839;48.106;11.618;2024-03-08T20:24:57;4.00;94.60
27368;DHT22;14839;48.106;11.618;2024-03-08T20:27:24;4.10;94.60
27368;DHT22;14839;48.106;11.618;2024-03-08T20:29:53;4.10;94.60
27368;DHT22;14839;48.106;11.618;2024-03-08T20:32:19;4.00;94.60
27368;DHT22;14839;48.106;11.618;2024-03-08T20:34:45;4.00;94.60
27368;DHT22;14839;48.106;11.618;2024-03-08T20:37:11;4.00;94.60
27368;DHT22;14839;48.106;11.618;2024-03-08T20:39:39;3.90;94.60